Hutchinson, Minnesota
Current Conditions -  °F | °C
As of 2:32 AM on Monday 22 Dec 2014 (Local Time) from KHCD Reporting Station
Haze Haze  
Wind Chill: 32°   Ceiling: 400
Heat Index: 38°   Visibility: 3mi
Dew Point: 38°   Wind: 10mph
Humidity: 100%   Direction: 140°SE
Pressure: 29.64"   Gusts: 16mph
Location:  44.89°N, 94.37°W
Report Text: KHCD 220832Z AUTO 14009G14KT 3SM BR OVC004 04/04 A2964 RMK AO2 T00360036
Loading
Personal Weather Stations






























Interactive Weather Map New forecast layout! Learn more

10-Day Weather Forecast

Advertisements
Track Severe Weather on mobile